Time;durP1;ratioP1;P1;durP2;ratioP2;P2;SDS_P1;SDS_P2;PMS_P1;PMS_P2;Temp;Humidity;BMP_temperature;BMP_pressure;BME280_temperature;BME280_humidity;BME280_pressure;Samples;Min_cycle;Max_cycle;Signal;HPM_P1;HPM_P2
2022/01/29 00:01:43;;;;;;;4.57;4.03;;;5.80;99.90;;;;;;5051377;28;20582;-73
2022/01/29 00:04:16;;;;;;;5.43;4.00;;;5.80;99.90;;;;;;5045256;28;20279;-72
2022/01/29 00:06:44;;;;;;;7.32;4.43;;;5.80;99.90;;;;;;5051083;28;20247;-72
2022/01/29 00:09:14;;;;;;;4.13;3.63;;;5.80;99.90;;;;;;5051443;28;20297;-72
2022/01/29 00:11:43;;;;;;;6.90;4.07;;;5.80;99.90;;;;;;5051070;28;20197;-71
2022/01/29 00:14:11;;;;;;;6.18;4.15;;;5.80;99.90;;;;;;5050853;28;20193;-73
2022/01/29 00:16:40;;;;;;;7.55;4.45;;;5.80;99.90;;;;;;5051089;28;20211;-71
2022/01/29 00:19:09;;;;;;;5.10;4.25;;;5.80;99.90;;;;;;5050677;28;20221;-71
2022/01/29 00:21:38;;;;;;;6.88;4.82;;;5.80;99.90;;;;;;5051698;28;20192;-72
2022/01/29 00:24:07;;;;;;;7.57;4.63;;;5.80;99.90;;;;;;5050289;28;20219;-71
2022/01/29 00:26:35;;;;;;;4.60;4.18;;;5.80;99.90;;;;;;5051477;28;20273;-72
2022/01/29 00:29:09;;;;;;;5.80;4.25;;;5.80;99.90;;;;;;5049867;28;20224;-72
2022/01/29 00:31:38;;;;;;;6.20;4.22;;;5.80;99.90;;;;;;5051052;28;20196;-72
2022/01/29 00:34:06;;;;;;;5.13;3.75;;;5.80;99.90;;;;;;5050177;28;20314;-72
2022/01/29 00:36:34;;;;;;;4.22;3.83;;;5.80;99.90;;;;;;5051202;28;20216;-72
2022/01/29 00:39:04;;;;;;;5.35;4.15;;;5.80;99.90;;;;;;5050046;28;20216;-72
2022/01/29 00:41:32;;;;;;;5.35;4.47;;;5.80;99.90;;;;;;5050887;28;20188;-71
2022/01/29 00:44:00;;;;;;;7.47;4.75;;;5.80;99.90;;;;;;5049858;28;20273;-71
2022/01/29 00:46:29;;;;;;;10.68;5.40;;;5.80;99.90;;;;;;5050990;28;20191;-72
2022/01/29 00:48:57;;;;;;;9.27;5.93;;;5.80;99.90;;;;;;5050273;28;20221;-71
2022/01/29 00:51:25;;;;;;;7.55;5.68;;;5.80;99.90;;;;;;5050715;28;20243;-72
2022/01/29 00:53:53;;;;;;;7.10;5.07;;;5.80;99.90;;;;;;5049382;28;20729;-72
2022/01/29 00:56:22;;;;;;;7.40;5.10;;;5.80;99.90;;;;;;5050357;28;20338;-71
2022/01/29 00:58:50;;;;;;;5.20;4.60;;;5.80;99.90;;;;;;5049989;28;20248;-71
2022/01/29 01:01:18;;;;;;;8.70;5.40;;;5.80;99.90;;;;;;5050277;28;20238;-72
2022/01/29 01:03:46;;;;;;;5.80;5.03;;;5.80;99.90;;;;;;5050366;28;20227;-71
2022/01/29 01:06:14;;;;;;;6.85;4.93;;;5.80;99.90;;;;;;5049757;28;20254;-74
2022/01/29 01:08:43;;;;;;;7.05;5.22;;;5.80;99.90;;;;;;5049538;28;20649;-71
2022/01/29 01:11:11;;;;;;;5.68;4.93;;;5.80;99.90;;;;;;5037635;28;20193;-72
2022/01/29 01:13:41;;;;;;;9.73;4.80;;;5.80;99.90;;;;;;5049944;28;20602;-72
2022/01/29 01:16:10;;;;;;;8.00;4.80;;;5.80;99.90;;;;;;5050048;28;20552;-72
2022/01/29 01:18:38;;;;;;;7.70;5.40;;;5.80;99.90;;;;;;5030731;28;20606;-71
2022/01/29 01:21:06;;;;;;;8.63;5.20;;;5.80;99.90;;;;;;5038684;28;20259;-72
2022/01/29 01:23:34;;;;;;;7.47;5.60;;;5.80;99.90;;;;;;5031917;28;20228;-71
2022/01/29 01:26:04;;;;;;;8.10;4.70;;;5.80;99.90;;;;;;5050238;28;20204;-72
2022/01/29 01:28:32;;;;;;;7.07;4.85;;;5.80;99.90;;;;;;5049526;28;20220;-72
2022/01/29 01:31:01;;;;;;;9.20;6.22;;;5.80;99.90;;;;;;5050187;28;20181;-72
2022/01/29 01:33:29;;;;;;;7.90;5.28;;;5.80;99.90;;;;;;5050236;28;20228;-72
2022/01/29 01:36:01;;;;;;;10.02;6.18;;;5.80;99.90;;;;;;5049685;28;20200;-74
2022/01/29 01:38:36;;;;;;;8.75;5.80;;;5.80;99.90;;;;;;5049281;28;20286;-72
2022/01/29 01:41:08;;;;;;;7.25;5.43;;;5.80;99.90;;;;;;5050465;28;20188;-72
2022/01/29 01:43:36;;;;;;;10.10;6.03;;;5.80;99.90;;;;;;5049757;28;20609;-72
2022/01/29 01:46:06;;;;;;;8.75;6.50;;;5.80;99.90;;;;;;5049298;28;20187;-71
2022/01/29 01:48:34;;;;;;;8.10;5.40;;;5.80;99.90;;;;;;5042960;28;20216;-72
2022/01/29 01:51:02;;;;;;;8.13;5.90;;;5.80;99.90;;;;;;5037334;28;20725;-73
2022/01/29 01:53:31;;;;;;;7.90;5.35;;;5.80;99.90;;;;;;5029888;28;20216;-71
2022/01/29 01:55:59;;;;;;;9.95;5.60;;;5.80;99.90;;;;;;5041587;28;20287;-71
2022/01/29 01:58:27;;;;;;;8.32;6.25;;;5.80;99.90;;;;;;5049618;28;20798;-71
2022/01/29 02:00:55;;;;;;;9.07;6.40;;;5.80;99.90;;;;;;5049851;28;20353;-71
2022/01/29 02:03:24;;;;;;;8.00;5.55;;;5.80;99.90;;;;;;5049221;28;20321;-72
2022/01/29 02:05:53;;;;;;;10.38;6.95;;;5.80;99.90;;;;;;5053225;28;20189;-71
2022/01/29 02:08:21;;;;;;;7.13;5.35;;;5.80;99.90;;;;;;5052864;28;20281;-72
2022/01/29 02:10:50;;;;;;;8.38;6.03;;;5.80;99.90;;;;;;5053861;28;20597;-71
2022/01/29 02:13:18;;;;;;;9.30;6.18;;;5.80;99.90;;;;;;5053660;28;20270;-72
2022/01/29 02:15:47;;;;;;;8.43;5.82;;;5.80;99.90;;;;;;5053106;28;20209;-72
2022/01/29 02:18:15;;;;;;;7.28;5.32;;;5.80;99.90;;;;;;5053301;28;20609;-71
2022/01/29 02:20:45;;;;;;;9.05;5.50;;;5.80;99.90;;;;;;5053362;28;20189;-71
2022/01/29 02:23:17;;;;;;;8.13;5.55;;;5.80;99.90;;;;;;5015496;28;20228;-71
2022/01/29 02:25:49;;;;;;;9.80;5.40;;;5.80;99.90;;;;;;5048172;28;20188;-72
2022/01/29 02:28:19;;;;;;;8.25;6.57;;;5.80;99.90;;;;;;5052647;28;20251;-72
2022/01/29 02:30:49;;;;;;;8.35;6.10;;;5.80;99.90;;;;;;5053538;28;20221;-71
2022/01/29 02:33:19;;;;;;;7.25;5.35;;;5.80;99.90;;;;;;5042633;28;20279;-71
2022/01/29 02:35:48;;;;;;;8.65;6.53;;;5.80;99.90;;;;;;5033313;28;20560;-72
2022/01/29 02:38:20;;;;;;;7.80;6.00;;;5.80;99.90;;;;;;5050094;28;20232;-72
2022/01/29 02:40:50;;;;;;;9.50;6.10;;;5.80;99.90;;;;;;5053386;28;20225;-73
2022/01/29 02:43:21;;;;;;;13.80;7.72;;;5.80;99.90;;;;;;5052734;28;20219;-71
2022/01/29 02:45:52;;;;;;;8.95;6.32;;;5.80;99.90;;;;;;5033110;28;20243;-72
2022/01/29 02:48:21;;;;;;;9.07;6.22;;;5.80;99.90;;;;;;5050707;28;20721;-72
2022/01/29 02:50:50;;;;;;;11.52;6.95;;;5.80;99.90;;;;;;5052971;28;20187;-72
2022/01/29 02:53:19;;;;;;;9.95;7.40;;;5.80;99.90;;;;;;5051602;28;20760;-73
2022/01/29 02:55:48;;;;;;;9.07;6.28;;;5.80;99.90;;;;;;5052868;28;20215;-72
2022/01/29 02:58:16;;;;;;;9.90;5.75;;;5.80;99.90;;;;;;5052123;28;20282;-71
2022/01/29 03:00:44;;;;;;;9.95;5.95;;;5.80;99.90;;;;;;5052613;28;20193;-73
2022/01/29 03:03:12;;;;;;;9.13;5.63;;;5.80;99.90;;;;;;5050090;28;20223;-71
2022/01/29 03:05:41;;;;;;;7.78;5.40;;;5.80;99.90;;;;;;5052570;28;20200;-72
2022/01/29 03:08:09;;;;;;;7.55;5.45;;;5.80;99.90;;;;;;5052017;28;20298;-73
2022/01/29 03:10:38;;;;;;;8.68;6.30;;;5.80;99.90;;;;;;5053021;28;20283;-72
2022/01/29 03:13:07;;;;;;;9.38;6.43;;;5.80;99.90;;;;;;5050909;28;20696;-72
2022/01/29 03:15:35;;;;;;;9.45;6.70;;;5.80;99.90;;;;;;5051843;28;20189;-73
2022/01/29 03:18:03;;;;;;;8.85;5.80;;;5.80;99.90;;;;;;5051416;28;20736;-72
2022/01/29 03:20:31;;;;;;;8.63;5.95;;;5.80;99.90;;;;;;5052417;28;20196;-72
2022/01/29 03:23:00;;;;;;;7.90;5.57;;;5.80;99.90;;;;;;5052095;28;20220;-73
2022/01/29 03:25:28;;;;;;;7.43;5.53;;;5.80;99.90;;;;;;5052144;28;20246;-72
2022/01/29 03:27:57;;;;;;;9.38;5.90;;;5.80;99.90;;;;;;5040111;28;20224;-72
2022/01/29 03:30:25;;;;;;;9.70;7.10;;;5.80;99.90;;;;;;5049476;28;20193;-72
2022/01/29 03:32:53;;;;;;;9.75;6.00;;;5.80;99.90;;;;;;5051944;28;20274;-72
2022/01/29 03:35:21;;;;;;;7.38;5.22;;;5.80;99.90;;;;;;5052024;28;20250;-72
2022/01/29 03:37:49;;;;;;;8.00;6.03;;;5.80;99.90;;;;;;5051235;28;20701;-73
2022/01/29 03:40:17;;;;;;;9.70;6.53;;;5.80;99.90;;;;;;5052513;28;20192;-72
2022/01/29 03:42:57;;;;;;;9.45;6.03;;;5.80;99.90;;;;;;5050928;28;20228;-71
2022/01/29 03:45:27;;;;;;;8.90;6.00;;;5.80;99.90;;;;;;5051871;28;21029;-72
2022/01/29 03:47:55;;;;;;;8.75;5.65;;;5.80;99.90;;;;;;5051588;28;20252;-72
2022/01/29 03:50:23;;;;;;;7.93;5.55;;;5.80;99.90;;;;;;5051950;28;20220;-72
2022/01/29 03:52:51;;;;;;;7.50;5.38;;;5.80;99.90;;;;;;5051164;28;20224;-72
2022/01/29 03:55:19;;;;;;;6.57;4.70;;;5.80;99.90;;;;;;5051319;28;20199;-72
2022/01/29 03:57:48;;;;;;;9.07;5.90;;;5.80;99.90;;;;;;5051160;28;20229;-72
2022/01/29 04:00:16;;;;;;;8.93;6.30;;;5.80;99.90;;;;;;5048853;28;20232;-72
2022/01/29 04:02:45;;;;;;;7.57;5.40;;;5.80;99.90;;;;;;5050642;28;20232;-71
2022/01/29 04:05:14;;;;;;;8.07;5.50;;;5.80;99.90;;;;;;5043456;28;20315;-72
2022/01/29 04:07:42;;;;;;;7.50;5.45;;;5.80;99.90;;;;;;5051155;28;20255;-73
2022/01/29 04:10:12;;;;;;;6.10;4.50;;;5.80;99.90;;;;;;5050829;28;20188;-73
2022/01/29 04:12:44;;;;;;;8.50;5.38;;;5.80;99.90;;;;;;5045597;28;20743;-72
2022/01/29 04:15:12;;;;;;;10.27;5.75;;;5.80;99.90;;;;;;5051155;28;20311;-71
2022/01/29 04:17:40;;;;;;;6.65;4.60;;;5.80;99.90;;;;;;5050830;28;20244;-72
2022/01/29 04:20:10;;;;;;;6.20;5.25;;;5.80;99.90;;;;;;5051020;28;20192;-72
2022/01/29 04:22:39;;;;;;;7.40;6.10;;;5.80;99.90;;;;;;5050714;28;20225;-72
2022/01/29 04:25:09;;;;;;;6.95;5.80;;;5.80;99.90;;;;;;5050788;28;20231;-71
2022/01/29 04:27:43;;;;;;;9.63;5.10;;;5.80;99.90;;;;;;5033750;28;20229;-72
2022/01/29 04:30:18;;;;;;;7.03;5.22;;;5.80;99.90;;;;;;5051075;28;20224;-71
2022/01/29 04:33:00;;;;;;;7.82;5.20;;;5.80;99.90;;;;;;5050778;28;20278;-72
2022/01/29 04:35:30;;;;;;;7.07;5.05;;;5.80;99.90;;;;;;5050854;28;20254;-72
2022/01/29 04:37:58;;;;;;;7.32;5.22;;;5.80;99.90;;;;;;5050349;28;20220;-71
2022/01/29 04:40:27;;;;;;;5.47;4.88;;;5.80;99.90;;;;;;5026991;28;20197;-72
2022/01/29 04:42:55;;;;;;;6.57;5.25;;;5.80;99.90;;;;;;5049429;28;20641;-72
2022/01/29 04:45:23;;;;;;;6.32;4.90;;;5.80;99.90;;;;;;5050948;28;20189;-72
2022/01/29 04:47:51;;;;;;;8.30;4.88;;;5.80;99.90;;;;;;5025731;28;20331;-72
2022/01/29 04:50:19;;;;;;;8.00;4.97;;;5.80;99.90;;;;;;5031009;28;20197;-71
2022/01/29 04:52:48;;;;;;;5.47;4.70;;;5.80;99.90;;;;;;5047884;28;20224;-73
2022/01/29 04:55:17;;;;;;;5.25;4.30;;;5.80;99.90;;;;;;5050613;28;20192;-71
2022/01/29 04:57:45;;;;;;;6.82;5.07;;;5.80;99.90;;;;;;5050379;28;20244;-72
2022/01/29 05:00:20;;;;;;;5.20;3.95;;;5.80;99.90;;;;;;5050031;28;20188;-72
2022/01/29 05:02:49;;;;;;;4.85;3.90;;;5.80;99.90;;;;;;5050286;28;20216;-71
2022/01/29 05:05:17;;;;;;;6.57;4.95;;;5.80;99.90;;;;;;5050456;28;20609;-72
2022/01/29 05:07:45;;;;;;;4.50;3.78;;;5.80;99.90;;;;;;5049823;28;20319;-72
2022/01/29 05:10:16;;;;;;;7.22;4.60;;;5.80;99.90;;;;;;5052757;28;20197;-73
2022/01/29 05:12:49;;;;;;;5.35;4.03;;;5.80;99.90;;;;;;5050185;28;20216;-73
2022/01/29 05:15:25;;;;;;;6.95;4.57;;;5.80;99.90;;;;;;5050455;28;20609;-71
2022/01/29 05:28:56;;;;;;;6.60;4.30;;;5.80;99.90;;;;;;5049470;28;20250;-72
2022/01/29 05:31:25;;;;;;;6.40;4.68;;;5.80;99.90;;;;;;5050135;28;20196;-72
2022/01/29 05:33:53;;;;;;;5.80;4.00;;;5.80;99.90;;;;;;5050034;28;20217;-72
2022/01/29 05:36:21;;;;;;;5.43;4.13;;;5.80;99.90;;;;;;5050144;28;20188;-73
2022/01/29 05:38:49;;;;;;;4.75;3.00;;;5.80;99.90;;;;;;5049413;28;20216;-74
2022/01/29 05:41:19;;;;;;;5.45;3.60;;;5.80;99.90;;;;;;5054447;28;20562;-72
2022/01/29 05:43:47;;;;;;;4.13;3.20;;;5.80;99.90;;;;;;5053771;28;20226;-71
2022/01/29 05:46:16;;;;;;;5.10;3.90;;;5.80;99.90;;;;;;5052654;28;20778;-72
2022/01/29 05:48:44;;;;;;;3.95;3.40;;;5.80;99.90;;;;;;5053607;28;20224;-72
2022/01/29 05:51:13;;;;;;;4.82;3.45;;;5.80;99.90;;;;;;5054053;28;20185;-71
2022/01/29 05:53:41;;;;;;;3.95;3.40;;;5.80;99.90;;;;;;5048468;28;20221;-73
2022/01/29 05:56:09;;;;;;;4.68;3.35;;;5.80;99.90;;;;;;5034273;28;20629;-72
2022/01/29 05:58:39;;;;;;;4.70;2.85;;;5.80;99.90;;;;;;5045644;28;20220;-71
2022/01/29 06:01:07;;;;;;;4.82;3.50;;;5.80;99.90;;;;;;5054092;28;20196;-73
2022/01/29 06:03:35;;;;;;;4.18;3.30;;;5.80;99.90;;;;;;5052106;28;20223;-71
2022/01/29 06:06:03;;;;;;;4.88;3.50;;;5.80;99.90;;;;;;5034139;28;20193;-72
2022/01/29 06:08:31;;;;;;;3.25;2.55;;;5.80;99.90;;;;;;5037410;28;20576;-74
2022/01/29 06:11:00;;;;;;;4.40;3.40;;;5.80;99.90;;;;;;5035312;28;20187;-72
2022/01/29 06:13:28;;;;;;;3.97;3.10;;;5.80;99.90;;;;;;5052835;28;20221;-72
2022/01/29 06:15:58;;;;;;;6.10;4.22;;;5.80;99.90;;;;;;5052499;28;20673;-73
2022/01/29 06:18:26;;;;;;;4.00;3.60;;;5.80;99.90;;;;;;5052842;28;20224;-72
2022/01/29 06:20:56;;;;;;;2.75;2.50;;;5.80;99.90;;;;;;5037303;28;20281;-72
2022/01/29 06:23:30;;;;;;;4.43;3.28;;;5.80;99.90;;;;;;5037908;28;20220;-72
2022/01/29 06:25:58;;;;;;;3.67;3.35;;;5.80;99.90;;;;;;5042992;28;20243;-72
2022/01/29 06:28:26;;;;;;;3.28;2.70;;;5.80;99.90;;;;;;5052975;28;20231;-72
2022/01/29 06:30:55;;;;;;;3.20;2.90;;;5.80;99.90;;;;;;5052378;28;20192;-72
2022/01/29 06:33:24;;;;;;;4.40;3.15;;;5.80;99.90;;;;;;5053832;28;20220;-72
2022/01/29 06:35:52;;;;;;;5.40;2.90;;;5.80;99.90;;;;;;5053162;28;20192;-72
2022/01/29 06:38:20;;;;;;;5.22;3.67;;;5.80;99.90;;;;;;5051879;28;20243;-72
2022/01/29 06:40:48;;;;;;;5.03;3.33;;;5.80;99.90;;;;;;5047451;28;20258;-72
2022/01/29 06:43:16;;;;;;;3.70;2.95;;;5.80;99.90;;;;;;5051781;28;20216;-71
2022/01/29 06:45:46;;;;;;;3.53;3.13;;;5.80;99.90;;;;;;5052221;28;20243;-72
2022/01/29 06:48:15;;;;;;;4.30;3.42;;;5.80;99.90;;;;;;5052718;28;20247;-72
2022/01/29 06:50:45;;;;;;;3.40;3.05;;;5.80;99.90;;;;;;5051276;28;20185;-72
2022/01/29 06:53:13;;;;;;;3.67;3.05;;;5.80;99.90;;;;;;5052256;28;20231;-72
2022/01/29 06:55:41;;;;;;;3.47;3.08;;;5.80;99.90;;;;;;5052661;28;20698;-73
2022/01/29 06:58:09;;;;;;;4.78;3.00;;;5.80;99.90;;;;;;5052041;28;20270;-72
2022/01/29 07:00:58;;;;;;;4.32;2.88;;;5.80;99.90;;;;;;5040026;28;20603;-72
2022/01/29 07:03:26;;;;;;;3.08;2.78;;;5.80;99.90;;;;;;5051007;28;20220;-72
2022/01/29 07:05:56;;;;;;;2.63;2.42;;;5.80;99.90;;;;;;5049148;28;20230;-71
2022/01/29 07:08:23;;;;;;;3.45;2.70;;;5.80;99.90;;;;;;5052236;28;20764;-72
2022/01/29 07:10:52;;;;;;;3.50;3.08;;;5.80;99.90;;;;;;5052165;28;20247;-72
2022/01/29 07:13:21;;;;;;;3.67;3.00;;;5.80;99.90;;;;;;5052632;28;20625;-72
2022/01/29 07:15:51;;;;;;;4.03;2.95;;;5.80;99.90;;;;;;5051841;28;20209;-73
2022/01/29 07:18:19;;;;;;;3.42;2.30;;;5.80;99.90;;;;;;5044256;28;20266;-73
2022/01/29 07:20:48;;;;;;;2.90;2.42;;;5.80;99.90;;;;;;5052349;28;20267;-73
2022/01/29 07:23:17;;;;;;;3.25;2.95;;;5.80;99.90;;;;;;5051789;28;20971;-73
2022/01/29 07:25:45;;;;;;;3.22;2.67;;;5.80;99.90;;;;;;5051557;28;20188;-71
2022/01/29 07:28:13;;;;;;;4.15;2.65;;;5.80;99.90;;;;;;5051106;28;20645;-72
2022/01/29 07:30:41;;;;;;;2.72;2.53;;;5.80;99.90;;;;;;5051904;28;20618;-72
2022/01/29 07:33:11;;;;;;;2.58;2.38;;;5.80;99.90;;;;;;5049714;28;20571;-71
2022/01/29 07:35:39;;;;;;;2.55;2.20;;;5.80;99.90;;;;;;5051646;28;20177;-72
2022/01/29 07:38:07;;;;;;;2.40;2.20;;;5.80;99.90;;;;;;5051198;28;20228;-72
2022/01/29 07:40:37;;;;;;;3.40;2.75;;;5.80;99.90;;;;;;5052323;28;20257;-73
2022/01/29 07:43:05;;;;;;;3.15;2.28;;;5.80;99.90;;;;;;5051299;28;20255;-72
2022/01/29 07:45:33;;;;;;;4.60;3.25;;;5.80;99.90;;;;;;5051968;28;20356;-72
2022/01/29 07:48:01;;;;;;;2.92;2.72;;;5.90;99.90;;;;;;5043337;28;20229;-72
2022/01/29 07:50:29;;;;;;;3.95;2.85;;;5.80;99.90;;;;;;5038671;28;20224;-72
2022/01/29 07:52:59;;;;;;;4.00;3.10;;;5.80;99.90;;;;;;5051210;28;20252;-71
2022/01/29 07:55:27;;;;;;;4.47;2.70;;;5.80;99.90;;;;;;5051563;28;20224;-71
2022/01/29 07:57:56;;;;;;;4.43;2.63;;;5.80;99.90;;;;;;5050477;28;20721;-71
2022/01/29 08:00:24;;;;;;;3.33;2.75;;;5.80;99.90;;;;;;5051606;28;20299;-73
2022/01/29 08:02:52;;;;;;;3.30;2.60;;;5.80;99.90;;;;;;5051064;28;20245;-71
2022/01/29 08:05:21;;;;;;;2.90;2.55;;;5.80;99.90;;;;;;5051286;28;20197;-71
2022/01/29 08:07:49;;;;;;;3.42;2.88;;;5.80;99.90;;;;;;5050712;28;20250;-71
2022/01/29 08:10:17;;;;;;;2.40;2.20;;;5.80;99.90;;;;;;5051157;28;20544;-72
2022/01/29 08:12:45;;;;;;;3.85;3.00;;;5.80;99.90;;;;;;5044127;28;20691;-73
2022/01/29 08:15:15;;;;;;;3.15;2.70;;;5.80;99.90;;;;;;5050056;28;20193;-70
2022/01/29 08:17:43;;;;;;;4.30;3.33;;;5.80;99.90;;;;;;5049371;28;20523;-72
2022/01/29 08:20:12;;;;;;;3.92;2.83;;;5.90;99.90;;;;;;5050981;28;20525;-72
2022/01/29 08:22:40;;;;;;;2.38;2.17;;;5.90;99.90;;;;;;5050990;28;20220;-71
2022/01/29 08:25:08;;;;;;;2.80;2.25;;;5.90;99.90;;;;;;5049630;28;20666;-71
2022/01/29 08:27:36;;;;;;;4.03;2.45;;;5.90;99.90;;;;;;5047324;28;20274;-71
2022/01/29 08:30:06;;;;;;;6.43;3.60;;;5.90;99.90;;;;;;5050997;28;20215;-72
2022/01/29 08:32:41;;;;;;;8.80;3.70;;;5.90;99.90;;;;;;5047589;28;20525;-71
2022/01/29 08:35:10;;;;;;;10.40;4.18;;;6.00;99.90;;;;;;5047262;28;20954;-72
2022/01/29 08:37:38;;;;;;;7.75;4.20;;;5.90;99.90;;;;;;5047292;28;20243;-71
2022/01/29 08:40:08;;;;;;;6.90;3.72;;;6.00;99.90;;;;;;5053950;28;20687;-72
2022/01/29 08:42:36;;;;;;;7.43;3.03;;;6.00;99.90;;;;;;5049798;28;20760;-72
2022/01/29 08:45:09;;;;;;;10.93;2.95;;;5.90;99.90;;;;;;5060829;22;20225;-53
2022/01/29 08:47:48;;;;;;;7.90;4.88;;;5.90;99.90;;;;;;5043220;28;20212;-53
2022/01/29 08:50:17;;;;;;;6.85;3.30;;;5.90;99.90;;;;;;5046464;28;20241;-54
2022/01/29 08:52:48;;;;;;;6.25;3.25;;;5.90;99.90;;;;;;5033852;28;20209;-52
2022/01/29 08:55:16;;;;;;;8.88;4.07;;;6.00;99.90;;;;;;5035699;28;20198;-52
2022/01/29 08:57:45;;;;;;;4.00;3.28;;;6.00;99.90;;;;;;5033845;28;20267;-52
2022/01/29 09:00:15;;;;;;;4.75;3.03;;;6.10;99.90;;;;;;5048887;28;20224;-51
2022/01/29 09:02:43;;;;;;;8.88;4.20;;;6.10;99.90;;;;;;5036554;28;20245;-52
2022/01/29 09:05:14;;;;;;;9.80;3.83;;;6.10;99.90;;;;;;5009484;28;20190;-51
2022/01/29 09:07:43;;;;;;;7.70;4.20;;;6.10;99.90;;;;;;5009053;28;20222;-53
2022/01/29 09:10:12;;;;;;;5.85;3.35;;;6.10;99.90;;;;;;5010005;28;20561;-52
2022/01/29 09:12:42;;;;;;;3.75;3.35;;;6.00;99.90;;;;;;5019639;28;20228;-51
2022/01/29 09:15:10;;;;;;;10.63;3.67;;;6.00;99.90;;;;;;5028434;28;20207;-51
2022/01/29 09:17:40;;;;;;;4.63;3.63;;;6.00;99.90;;;;;;5023074;28;20273;-52
2022/01/29 09:20:11;;;;;;;4.80;4.38;;;6.00;99.90;;;;;;5009536;28;20226;-52
2022/01/29 09:22:41;;;;;;;6.75;4.05;;;6.00;99.90;;;;;;5009062;28;20217;-51
2022/01/29 09:25:10;;;;;;;8.50;3.92;;;6.00;99.90;;;;;;5009313;28;20694;-52
2022/01/29 09:27:38;;;;;;;5.75;4.60;;;6.00;99.90;;;;;;5009064;28;20230;-51
2022/01/29 09:30:08;;;;;;;4.68;4.22;;;6.00;99.90;;;;;;5008979;28;20689;-51
2022/01/29 09:32:36;;;;;;;4.00;3.40;;;6.00;99.90;;;;;;5009106;28;20490;-52
2022/01/29 09:35:05;;;;;;;4.00;3.40;;;6.00;99.90;;;;;;5009227;28;20626;-51
2022/01/29 09:37:34;;;;;;;4.43;3.28;;;6.00;99.90;;;;;;5008842;28;20218;-53
2022/01/29 09:40:04;;;;;;;4.80;3.30;;;6.00;99.90;;;;;;5009218;28;20261;-52
2022/01/29 09:42:32;;;;;;;6.15;3.10;;;6.00;99.90;;;;;;5008783;28;20279;-51
2022/01/29 09:45:01;;;;;;;10.68;3.38;;;6.00;99.90;;;;;;5009022;28;20190;-52
2022/01/29 09:47:30;;;;;;;5.30;3.10;;;6.00;99.90;;;;;;5009690;28;20281;-53
2022/01/29 09:49:58;;;;;;;4.60;2.95;;;6.00;99.90;;;;;;5009980;28;20215;-52
2022/01/29 09:52:26;;;;;;;6.93;3.75;;;6.00;99.90;;;;;;5008690;28;20224;-53
2022/01/29 09:54:59;;;;;;;6.28;3.53;;;6.00;99.90;;;;;;5008684;28;20202;-51
2022/01/29 09:57:29;;;;;;;4.40;3.13;;;6.00;99.90;;;;;;5008804;28;20225;-53
2022/01/29 09:59:58;;;;;;;3.80;3.33;;;6.00;99.90;;;;;;5009068;28;20224;-52
2022/01/29 10:02:26;;;;;;;5.22;3.35;;;6.00;99.90;;;;;;5009007;28;20401;-53
2022/01/29 10:04:56;;;;;;;3.00;2.70;;;6.00;99.90;;;;;;5008880;28;20680;-51
2022/01/29 10:07:26;;;;;;;3.85;3.03;;;6.00;99.90;;;;;;5019682;28;20268;-51
2022/01/29 10:09:57;;;;;;;4.05;2.40;;;6.00;99.90;;;;;;5029676;28;20211;-51
2022/01/29 10:12:27;;;;;;;3.55;2.67;;;6.00;99.90;;;;;;5022563;28;20213;-51
2022/01/29 10:14:59;;;;;;;4.35;2.67;;;6.10;99.90;;;;;;5025678;28;20671;-51
2022/01/29 10:17:45;;;;;;;3.70;2.60;;;6.20;99.90;;;;;;5018337;28;20228;-52
2022/01/29 10:20:20;;;;;;;4.10;2.63;;;6.30;99.90;;;;;;5025615;28;20217;-51
2022/01/29 10:22:53;;;;;;;3.15;2.47;;;6.30;99.90;;;;;;5021481;28;20200;-52
2022/01/29 10:25:23;;;;;;;3.22;2.60;;;6.30;99.90;;;;;;5027744;28;20197;-51
2022/01/29 10:28:14;;;;;;;2.90;2.60;;;6.40;99.90;;;;;;5029858;28;20289;-52
2022/01/29 10:31:06;;;;;;;3.72;2.58;;;6.40;99.90;;;;;;5019780;28;20667;-52
2022/01/29 10:33:36;;;;;;;2.50;2.30;;;6.40;99.90;;;;;;5024685;28;20248;-52
2022/01/29 10:36:06;;;;;;;2.42;2.22;;;6.50;99.90;;;;;;5033355;28;20195;-50
2022/01/29 10:38:58;;;;;;;3.17;2.45;;;6.50;99.90;;;;;;5035380;28;20570;-51
2022/01/29 10:41:28;;;;;;;2.50;1.90;;;6.50;99.90;;;;;;5025004;28;20218;-54
2022/01/29 10:44:16;;;;;;;5.18;2.40;;;6.50;99.90;;;;;;5031481;28;20322;-53
2022/01/29 10:46:50;;;;;;;4.45;2.50;;;6.60;99.90;;;;;;5037346;28;20723;-52
2022/01/29 10:49:23;;;;;;;2.13;1.92;;;6.60;99.90;;;;;;5014807;28;20230;-54
2022/01/29 10:52:03;;;;;;;1.90;1.80;;;6.60;99.90;;;;;;5027247;28;20287;-53
2022/01/29 10:54:34;;;;;;;3.05;1.80;;;6.60;99.90;;;;;;5011783;28;20595;-51
2022/01/29 10:57:04;;;;;;;3.75;2.15;;;6.60;99.90;;;;;;5011291;28;20220;-52
2022/01/29 10:59:35;;;;;;;2.85;1.80;;;6.60;99.90;;;;;;5016055;28;20220;-51
2022/01/29 11:02:09;;;;;;;4.35;2.60;;;6.60;99.90;;;;;;5022470;28;20214;-54
2022/01/29 11:04:39;;;;;;;2.30;2.10;;;6.60;99.90;;;;;;5033667;28;20207;-52
2022/01/29 11:07:13;;;;;;;2.70;2.50;;;6.60;99.90;;;;;;5032166;28;20196;-53
2022/01/29 11:09:43;;;;;;;2.08;1.67;;;6.60;99.90;;;;;;5020771;28;20262;-53
2022/01/29 11:12:17;;;;;;;1.73;1.63;;;6.70;99.90;;;;;;5019085;28;20252;-53
2022/01/29 11:14:46;;;;;;;2.42;2.17;;;6.70;99.90;;;;;;5023956;28;20365;-50
2022/01/29 11:17:18;;;;;;;2.78;2.20;;;6.70;99.90;;;;;;5019899;28;20788;-52
2022/01/29 11:19:49;;;;;;;2.25;1.98;;;6.60;99.90;;;;;;5021684;28;20226;-51
2022/01/29 11:22:22;;;;;;;4.90;1.90;;;6.60;99.90;;;;;;5024300;28;20233;-52
2022/01/29 11:24:57;;;;;;;2.95;1.95;;;6.70;99.90;;;;;;5023480;28;20359;-51
2022/01/29 11:27:29;;;;;;;2.97;2.00;;;6.70;99.90;;;;;;5018704;28;20219;-51
2022/01/29 11:30:02;;;;;;;2.47;2.28;;;6.60;99.90;;;;;;5032352;28;20209;-52
2022/01/29 11:32:35;;;;;;;2.00;1.90;;;6.70;99.90;;;;;;5024485;28;20727;-52
2022/01/29 11:35:14;;;;;;;1.80;1.70;;;6.70;99.90;;;;;;5011304;28;20189;-52
2022/01/29 11:37:49;;;;;;;2.67;1.60;;;6.60;99.90;;;;;;5015026;28;20613;-51
2022/01/29 11:40:23;;;;;;;1.80;1.70;;;6.70;99.90;;;;;;5030082;28;20211;-52
2022/01/29 11:43:10;;;;;;;1.95;1.75;;;6.70;99.90;;;;;;5025908;28;20742;-51
2022/01/29 11:45:51;;;;;;;1.42;1.33;;;6.70;99.90;;;;;;5031661;28;20200;-52
2022/01/29 11:48:56;;;;;;;3.70;1.92;;;6.70;99.90;;;;;;5033747;28;20297;-53
2022/01/29 11:51:44;;;;;;;2.03;1.85;;;6.60;99.90;;;;;;5030860;28;20187;-53
2022/01/29 11:54:16;;;;;;;1.65;1.55;;;6.70;99.90;;;;;;5033912;28;20244;-52
2022/01/29 11:56:45;;;;;;;1.83;1.20;;;6.60;99.90;;;;;;5029049;28;20193;-52
2022/01/29 11:59:33;;;;;;;2.28;1.60;;;6.60;99.90;;;;;;5024239;28;20304;-51
2022/01/29 12:02:23;;;;;;;1.60;1.40;;;6.70;99.90;;;;;;5028422;28;20230;-52
2022/01/29 12:05:14;;;;;;;2.47;1.83;;;6.60;99.90;;;;;;5020389;28;20589;-52
2022/01/29 12:08:07;;;;;;;2.63;1.70;;;6.60;99.90;;;;;;5028511;28;20214;-52
2022/01/29 12:10:41;;;;;;;2.78;2.00;;;6.60;99.90;;;;;;5028635;28;20198;-51
2022/01/29 12:13:12;;;;;;;2.13;1.75;;;6.70;99.90;;;;;;5024382;28;20215;-51
2022/01/29 12:15:40;;;;;;;1.92;1.55;;;6.60;99.90;;;;;;5015618;28;20190;-52
2022/01/29 12:18:26;;;;;;;1.83;1.13;;;6.70;99.90;;;;;;5020382;28;20224;-53
2022/01/29 12:20:56;;;;;;;2.17;1.30;;;6.60;99.90;;;;;;5024913;28;20203;-52
2022/01/29 12:23:24;;;;;;;1.60;1.50;;;6.70;99.90;;;;;;5025935;28;20372;-52
2022/01/29 12:25:55;;;;;;;1.48;1.38;;;6.60;99.90;;;;;;5017961;28;20248;-52
2022/01/29 12:28:24;;;;;;;1.55;1.45;;;6.60;99.90;;;;;;5015141;28;20225;-53
2022/01/29 12:30:57;;;;;;;1.77;1.67;;;6.60;99.90;;;;;;5022812;28;20656;-53
2022/01/29 12:33:26;;;;;;;1.95;1.85;;;6.60;99.90;;;;;;5028599;28;20220;-51
2022/01/29 12:35:59;;;;;;;1.30;1.20;;;6.60;99.90;;;;;;5048811;28;20220;-52
2022/01/29 12:38:32;;;;;;;2.42;1.30;;;6.60;99.90;;;;;;5030601;28;20264;-52
2022/01/29 12:41:04;;;;;;;1.65;1.50;;;6.60;99.90;;;;;;5047771;28;20256;-54
2022/01/29 12:43:36;;;;;;;1.73;1.50;;;6.70;99.90;;;;;;5024761;28;20253;-53
2022/01/29 12:46:14;;;;;;;1.40;1.30;;;6.60;99.90;;;;;;5017182;28;20256;-52
2022/01/29 12:48:57;;;;;;;1.10;0.98;;;6.60;99.90;;;;;;5014370;28;20219;-52
2022/01/29 12:51:27;;;;;;;1.10;1.10;;;6.60;99.90;;;;;;5030551;28;20187;-52
2022/01/29 12:53:59;;;;;;;1.73;1.50;;;6.60;99.90;;;;;;5008963;28;20229;-51
2022/01/29 12:56:32;;;;;;;1.70;1.60;;;6.60;99.90;;;;;;5027014;28;20225;-52
2022/01/29 12:59:06;;;;;;;1.30;1.20;;;6.70;99.90;;;;;;5025845;28;20217;-53
2022/01/29 13:01:34;;;;;;;0.98;0.98;;;6.70;99.90;;;;;;5030421;28;20251;-54
2022/01/29 13:04:05;;;;;;;1.38;1.27;;;6.70;99.90;;;;;;5016689;28;20221;-52
2022/01/29 13:06:35;;;;;;;1.60;1.50;;;6.60;99.90;;;;;;5049548;28;20279;-51
2022/01/29 13:09:14;;;;;;;1.60;1.50;;;6.60;99.90;;;;;;5043743;28;20229;-51
2022/01/29 13:11:43;;;;;;;1.30;1.02;;;6.60;99.90;;;;;;5049707;28;20568;-51
2022/01/29 13:14:13;;;;;;;1.50;1.40;;;6.60;99.90;;;;;;5020415;28;20710;-52
2022/01/29 13:16:41;;;;;;;1.10;1.00;;;6.70;99.90;;;;;;5029041;28;20195;-52
2022/01/29 13:19:10;;;;;;;1.40;1.30;;;6.60;99.90;;;;;;5023614;28;20263;-53
2022/01/29 13:21:40;;;;;;;1.17;1.10;;;6.60;99.90;;;;;;5016072;28;20201;-53
2022/01/29 13:24:31;;;;;;;1.80;1.60;;;6.70;99.90;;;;;;5028522;28;20213;-51
2022/01/29 13:27:02;;;;;;;1.95;1.40;;;6.60;99.90;;;;;;5027756;28;20190;-52